Addison, Illinois
Current Conditions -  °F | °C
As of 9:07 PM on Monday 22 Dec 2014 (Local Time) from KORD Reporting Station
Light Rain Light Rain  
Wind Chill: 32°   Ceiling: 700
Heat Index: 40°   Visibility: 3mi
Dew Point: 38°   Wind: 15mph
Humidity: 93%   Direction: 130°SE
Pressure: 29.63"   Gusts: NA
Location:  41.93°N, 87.99°W
Report Text: KORD 230307Z 13013KT 3SM -RA BR OVC007 04/03 A2963 RMK AO2 P0000 T00440033
Loading
Personal Weather Stations






























Interactive Weather Map New forecast layout! Learn more

10-Day Weather Forecast

Advertisements
Track Severe Weather on mobile